Time;durP1;ratioP1;P1;durP2;ratioP2;P2;SDS_P1;SDS_P2;PMS_P1;PMS_P2;Temp;Humidity;BMP_temperature;BMP_pressure;BME280_temperature;BME280_humidity;BME280_pressure;Samples;Min_cycle;Max_cycle;Signal;HPM_P1;HPM_P2
2021/09/09 00:00:04;;;;;;;9.13;8.23;;;;;;;;;;5110695;27;24420;-58
2021/09/09 00:02:30;;;;;;;9.60;8.70;;;;;;;;;;5111392;27;24414;-58
2021/09/09 00:04:55;;;;;;;8.37;7.67;;;;;;;;;;5110188;27;24871;-58
2021/09/09 00:07:20;;;;;;;8.70;8.00;;;;;;;;;;5109880;28;25006;-57
2021/09/09 00:09:45;;;;;;;8.60;7.90;;;;;;;;;;5109760;28;24409;-57
2021/09/09 00:12:10;;;;;;;7.72;7.13;;;;;;;;;;5109411;28;24414;-57
2021/09/09 00:14:35;;;;;;;7.90;7.30;;;;;;;;;;5108868;28;24422;-57
2021/09/09 00:17:01;;;;;;;7.90;7.20;;;;;;;;;;5110266;28;24826;-57
2021/09/09 00:19:26;;;;;;;8.77;8.07;;;;;;;;;;5109521;28;24844;-57
2021/09/09 00:21:51;;;;;;;8.00;7.40;;;;;;;;;;5110562;27;24460;-57
2021/09/09 00:24:16;;;;;;;8.60;7.90;;;;;;;;;;5109053;28;24517;-57
2021/09/09 00:26:41;;;;;;;8.50;7.80;;;;;;;;;;5102035;28;24420;-57
2021/09/09 00:29:07;;;;;;;8.45;7.75;;;;;;;;;;5109808;28;24474;-57
2021/09/09 00:31:32;;;;;;;7.40;6.70;;;;;;;;;;5109129;28;24429;-58
2021/09/09 00:33:57;;;;;;;7.95;7.35;;;;;;;;;;5108449;28;25060;-58
2021/09/09 00:36:22;;;;;;;8.50;7.70;;;;;;;;;;5109609;28;24445;-58
2021/09/09 00:38:47;;;;;;;8.43;7.63;;;;;;;;;;5109408;28;24406;-58
2021/09/09 00:41:12;;;;;;;8.37;7.77;;;;;;;;;;5113329;27;24860;-58
2021/09/09 00:43:38;;;;;;;8.40;7.73;;;;;;;;;;5109777;27;24443;-58
2021/09/09 00:46:03;;;;;;;8.10;7.40;;;;;;;;;;5108587;28;24840;-59
2021/09/09 00:48:28;;;;;;;8.27;7.57;;;;;;;;;;5120507;27;24401;-58
2021/09/09 00:50:53;;;;;;;8.13;7.45;;;;;;;;;;5108818;28;24433;-57
2021/09/09 00:53:20;;;;;;;8.40;7.70;;;;;;;;;;5108287;28;24951;-58
2021/09/09 00:55:47;;;;;;;8.55;7.85;;;;;;;;;;5108285;28;24462;-57
2021/09/09 00:58:12;;;;;;;7.97;7.30;;;;;;;;;;5108730;28;24424;-58
2021/09/09 01:00:37;;;;;;;8.60;8.00;;;;;;;;;;5108451;28;24422;-57
2021/09/09 01:03:03;;;;;;;8.73;8.03;;;;;;;;;;5111668;27;24413;-57
2021/09/09 01:05:28;;;;;;;8.63;7.82;;;;;;;;;;5105104;27;24429;-58
2021/09/09 01:07:53;;;;;;;8.37;7.67;;;;;;;;;;5108608;28;24425;-58
2021/09/09 01:10:19;;;;;;;9.00;8.23;;;;;;;;;;5108877;28;24555;-58
2021/09/09 01:12:44;;;;;;;9.20;8.30;;;;;;;;;;5107688;28;24555;-58
2021/09/09 01:15:09;;;;;;;9.10;8.25;;;;;;;;;;5107973;28;24428;-58
2021/09/09 01:17:35;;;;;;;8.60;7.90;;;;;;;;;;5107643;28;24961;-58
2021/09/09 01:20:00;;;;;;;8.37;7.67;;;;;;;;;;5108080;28;24410;-58
2021/09/09 01:22:25;;;;;;;8.10;7.40;;;;;;;;;;5108209;28;24421;-58
2021/09/09 01:24:50;;;;;;;8.47;7.77;;;;;;;;;;5109227;27;24425;-58
2021/09/09 01:27:17;;;;;;;8.35;7.70;;;;;;;;;;5108670;28;24881;-58
2021/09/09 01:29:43;;;;;;;8.52;7.82;;;;;;;;;;5107154;28;24951;-58
2021/09/09 01:32:08;;;;;;;8.25;7.55;;;;;;;;;;5108202;28;24425;-58
2021/09/09 01:34:34;;;;;;;7.97;7.38;;;;;;;;;;5108629;28;24961;-58
2021/09/09 01:36:59;;;;;;;8.43;7.70;;;;;;;;;;5110238;27;25027;-58
2021/09/09 01:39:25;;;;;;;8.10;7.50;;;;;;;;;;5108629;28;24822;-58
2021/09/09 01:41:54;;;;;;;8.00;7.40;;;;;;;;;;5109211;27;24490;-57
2021/09/09 01:44:20;;;;;;;9.05;8.35;;;;;;;;;;5107492;28;24437;-58
2021/09/09 01:46:45;;;;;;;8.52;7.80;;;;;;;;;;5107733;28;24416;-58
2021/09/09 01:49:11;;;;;;;8.50;7.80;;;;;;;;;;5108067;28;24451;-58
2021/09/09 01:51:36;;;;;;;7.90;7.30;;;;;;;;;;5107692;28;24430;-58
2021/09/09 01:54:01;;;;;;;8.77;7.87;;;;;;;;;;5107780;28;24434;-58
2021/09/09 01:56:26;;;;;;;8.53;7.83;;;;;;;;;;5108864;27;24842;-58
2021/09/09 01:58:51;;;;;;;8.53;7.83;;;;;;;;;;5116071;27;25240;-58
2021/09/09 02:01:17;;;;;;;8.00;7.30;;;;;;;;;;5112716;27;24466;-58
2021/09/09 02:03:42;;;;;;;9.07;8.27;;;;;;;;;;5107122;28;24975;-58
2021/09/09 02:06:08;;;;;;;8.47;7.67;;;;;;;;;;5108439;28;24497;-58
2021/09/09 02:08:33;;;;;;;9.10;8.30;;;;;;;;;;5107108;28;25121;-59
2021/09/09 02:10:58;;;;;;;8.23;7.63;;;;;;;;;;5107433;28;24437;-58
2021/09/09 02:13:23;;;;;;;8.63;7.93;;;;;;;;;;5088396;28;24485;-59
2021/09/09 02:15:48;;;;;;;8.10;7.50;;;;;;;;;;5107233;28;24951;-58
2021/09/09 02:18:14;;;;;;;8.40;7.70;;;;;;;;;;5108383;27;24519;-58
2021/09/09 02:20:39;;;;;;;8.23;7.53;;;;;;;;;;5106723;28;24414;-58
2021/09/09 02:23:04;;;;;;;8.70;8.00;;;;;;;;;;5107866;28;24414;-57
2021/09/09 02:25:29;;;;;;;8.60;8.00;;;;;;;;;;5106775;28;25182;-58
2021/09/09 02:27:55;;;;;;;8.60;7.90;;;;;;;;;;5108302;28;24422;-58
2021/09/09 02:30:20;;;;;;;8.57;7.88;;;;;;;;;;5107671;28;24428;-58
2021/09/09 02:32:45;;;;;;;8.95;8.15;;;;;;;;;;5107271;28;24959;-57
2021/09/09 02:35:10;;;;;;;9.10;8.23;;;;;;;;;;5107274;28;25023;-58
2021/09/09 02:37:36;;;;;;;8.70;8.00;;;;;;;;;;5107381;28;24414;-57
2021/09/09 02:40:01;;;;;;;9.40;8.50;;;;;;;;;;5107218;28;25040;-57
2021/09/09 02:42:26;;;;;;;8.37;7.77;;;;;;;;;;5106976;28;24508;-57
2021/09/09 02:44:51;;;;;;;8.50;7.80;;;;;;;;;;5107136;28;24452;-57
2021/09/09 02:47:16;;;;;;;8.57;7.87;;;;;;;;;;5106924;28;24418;-57
2021/09/09 02:49:41;;;;;;;8.87;8.17;;;;;;;;;;5106483;28;24509;-57
2021/09/09 02:52:07;;;;;;;9.90;9.00;;;;;;;;;;5106578;28;24413;-58
2021/09/09 02:54:32;;;;;;;8.77;7.97;;;;;;;;;;5107265;28;24505;-58
2021/09/09 02:56:58;;;;;;;9.45;8.65;;;;;;;;;;5107291;28;24511;-58
2021/09/09 02:59:23;;;;;;;8.10;7.50;;;;;;;;;;5108250;28;24479;-58
2021/09/09 03:01:48;;;;;;;8.43;7.72;;;;;;;;;;5106093;28;24471;-58
2021/09/09 03:04:13;;;;;;;9.20;8.43;;;;;;;;;;5106789;28;24432;-58
2021/09/09 03:06:38;;;;;;;9.00;8.20;;;;;;;;;;5107092;28;24493;-58
2021/09/09 03:09:03;;;;;;;8.60;7.90;;;;;;;;;;5106669;28;24463;-58
2021/09/09 03:11:28;;;;;;;8.68;7.97;;;;;;;;;;5107324;28;24433;-58
2021/09/09 03:13:54;;;;;;;8.40;7.70;;;;;;;;;;5106521;28;24441;-58
2021/09/09 03:16:19;;;;;;;8.90;8.20;;;;;;;;;;5106680;28;24975;-57
2021/09/09 03:18:44;;;;;;;7.70;7.10;;;;;;;;;;5109536;28;24401;-58
2021/09/09 03:21:09;;;;;;;8.33;7.63;;;;;;;;;;5111862;27;24505;-58
2021/09/09 03:23:35;;;;;;;8.50;7.80;;;;;;;;;;5110904;28;24487;-58
2021/09/09 03:26:00;;;;;;;8.45;7.70;;;;;;;;;;5110102;28;24966;-57
2021/09/09 03:28:25;;;;;;;8.17;7.57;;;;;;;;;;5109809;28;24414;-58
2021/09/09 03:30:50;;;;;;;8.30;7.70;;;;;;;;;;5111415;27;25027;-58
2021/09/09 03:33:16;;;;;;;9.17;8.37;;;;;;;;;;5110893;27;24462;-58
2021/09/09 03:35:41;;;;;;;8.30;7.60;;;;;;;;;;5109202;28;24530;-58
2021/09/09 03:38:08;;;;;;;7.83;7.13;;;;;;;;;;5109979;28;24421;-58
2021/09/09 03:40:33;;;;;;;7.10;6.60;;;;;;;;;;5110158;28;24408;-57
2021/09/09 03:42:58;;;;;;;7.80;7.10;;;;;;;;;;5114806;27;24418;-57
2021/09/09 03:45:24;;;;;;;7.90;7.30;;;;;;;;;;5110029;28;24800;-57
2021/09/09 03:47:49;;;;;;;8.13;7.33;;;;;;;;;;5109687;28;24436;-57
2021/09/09 03:50:14;;;;;;;7.40;6.80;;;;;;;;;;5109338;28;24602;-57
2021/09/09 03:52:39;;;;;;;8.20;7.50;;;;;;;;;;5111700;27;24419;-57
2021/09/09 03:55:05;;;;;;;7.70;7.00;;;;;;;;;;5116651;27;24938;-57
2021/09/09 03:57:30;;;;;;;8.40;7.60;;;;;;;;;;5110286;28;24413;-57
2021/09/09 03:59:55;;;;;;;8.10;7.40;;;;;;;;;;5107642;28;24494;-57
2021/09/09 04:02:20;;;;;;;7.60;7.00;;;;;;;;;;5110785;28;24405;-58
2021/09/09 04:04:45;;;;;;;7.83;7.13;;;;;;;;;;5110694;27;24520;-57
2021/09/09 04:07:10;;;;;;;7.80;7.20;;;;;;;;;;5100567;28;25422;-57
2021/09/09 04:09:38;;;;;;;7.63;6.93;;;;;;;;;;5109909;28;24459;-58
2021/09/09 04:12:04;;;;;;;7.80;7.20;;;;;;;;;;5109187;27;24429;-58
2021/09/09 04:14:29;;;;;;;7.37;6.77;;;;;;;;;;5110466;27;24417;-58
2021/09/09 04:16:55;;;;;;;7.78;7.07;;;;;;;;;;5108702;27;24477;-58
2021/09/09 04:19:23;;;;;;;7.60;6.90;;;;;;;;;;5109027;27;24413;-59
2021/09/09 04:21:48;;;;;;;7.60;7.00;;;;;;;;;;5109436;28;24993;-58
2021/09/09 04:24:13;;;;;;;7.75;7.00;;;;;;;;;;5108733;27;24516;-58
2021/09/09 04:26:38;;;;;;;8.40;7.50;;;;;;;;;;5109007;27;24764;-58
2021/09/09 04:29:03;;;;;;;6.60;6.00;;;;;;;;;;5108928;27;24988;-58
2021/09/09 04:31:28;;;;;;;7.30;6.70;;;;;;;;;;5107762;28;25166;-58
2021/09/09 04:33:54;;;;;;;7.23;6.60;;;;;;;;;;5104343;28;25279;-58
2021/09/09 04:36:19;;;;;;;7.70;6.97;;;;;;;;;;5105467;28;24788;-59
2021/09/09 04:38:44;;;;;;;7.33;6.73;;;;;;;;;;5106072;28;24990;-57
2021/09/09 04:41:09;;;;;;;7.53;6.93;;;;;;;;;;5114485;27;24973;-57
2021/09/09 04:43:34;;;;;;;7.27;6.67;;;;;;;;;;5110348;27;25012;-57
2021/09/09 04:46:00;;;;;;;7.40;6.72;;;;;;;;;;5106164;27;24436;-58
2021/09/09 04:48:25;;;;;;;7.40;6.80;;;;;;;;;;5108675;27;24452;-58
2021/09/09 04:50:50;;;;;;;7.90;7.20;;;;;;;;;;5107840;27;24429;-58
2021/09/09 04:53:15;;;;;;;7.60;7.00;;;;;;;;;;5112409;27;24460;-58
2021/09/09 04:55:40;;;;;;;7.53;6.90;;;;;;;;;;5105546;28;25022;-57
2021/09/09 04:58:05;;;;;;;7.30;6.70;;;;;;;;;;5106751;27;24424;-58
2021/09/09 05:00:31;;;;;;;6.95;6.35;;;;;;;;;;5104569;28;24440;-58
2021/09/09 05:02:56;;;;;;;7.20;6.60;;;;;;;;;;5105502;28;25110;-57
2021/09/09 05:05:21;;;;;;;10.47;7.60;;;;;;;;;;5105040;28;24441;-58
2021/09/09 05:07:46;;;;;;;7.10;6.50;;;;;;;;;;5106661;27;24425;-57
2021/09/09 05:10:12;;;;;;;7.00;6.40;;;;;;;;;;5104503;28;24414;-57
2021/09/09 05:12:37;;;;;;;6.65;6.15;;;;;;;;;;5105177;28;24841;-57
2021/09/09 05:15:03;;;;;;;7.40;6.70;;;;;;;;;;5104164;28;24513;-57
2021/09/09 05:17:28;;;;;;;7.37;6.67;;;;;;;;;;5106105;28;24515;-58
2021/09/09 05:19:53;;;;;;;6.65;6.10;;;;;;;;;;5107020;27;24974;-58
2021/09/09 05:22:18;;;;;;;7.90;7.10;;;;;;;;;;5107606;28;25212;-58
2021/09/09 05:24:43;;;;;;;7.90;7.10;;;;;;;;;;5108039;28;24482;-58
2021/09/09 05:27:09;;;;;;;7.45;6.75;;;;;;;;;;5108082;28;24393;-57
2021/09/09 05:29:34;;;;;;;7.43;6.83;;;;;;;;;;5111688;27;24963;-58
2021/09/09 05:31:59;;;;;;;7.10;6.50;;;;;;;;;;5107384;28;24421;-57
2021/09/09 05:34:24;;;;;;;7.40;6.70;;;;;;;;;;5108771;28;24380;-58
2021/09/09 05:36:49;;;;;;;7.20;6.60;;;;;;;;;;5108502;28;24420;-57
2021/09/09 05:39:14;;;;;;;7.57;6.87;;;;;;;;;;5107682;28;24498;-58
2021/09/09 05:41:40;;;;;;;6.97;6.38;;;;;;;;;;5107973;28;24408;-58
2021/09/09 05:44:05;;;;;;;6.80;6.20;;;;;;;;;;5108006;28;24922;-58
2021/09/09 05:46:30;;;;;;;6.63;5.93;;;;;;;;;;5108079;28;24405;-57
2021/09/09 05:48:55;;;;;;;7.30;6.50;;;;;;;;;;5107857;28;24522;-57
2021/09/09 05:51:20;;;;;;;6.80;6.15;;;;;;;;;;5109104;27;24436;-59
2021/09/09 05:53:45;;;;;;;6.70;6.10;;;;;;;;;;5103851;28;24414;-58
2021/09/09 05:56:11;;;;;;;6.70;6.10;;;;;;;;;;5107949;28;24478;-58
2021/09/09 05:58:38;;;;;;;7.30;6.50;;;;;;;;;;5103113;28;24413;-58
2021/09/09 06:01:03;;;;;;;7.90;6.45;;;;;;;;;;5112326;27;24417;-58
2021/09/09 06:03:30;;;;;;;7.10;6.50;;;;;;;;;;5107753;28;24471;-58
2021/09/09 06:06:02;;;;;;;7.00;6.40;;;;;;;;;;5107311;28;24472;-58
2021/09/09 06:08:28;;;;;;;7.43;6.72;;;;;;;;;;5107883;28;24402;-58
2021/09/09 06:10:55;;;;;;;6.90;6.30;;;;;;;;;;5094740;27;24416;-58
2021/09/09 06:13:20;;;;;;;6.60;6.10;;;;;;;;;;5100867;27;24478;-58
2021/09/09 06:15:45;;;;;;;6.13;5.63;;;;;;;;;;5105506;28;24414;-58
2021/09/09 06:18:11;;;;;;;7.15;6.55;;;;;;;;;;5107985;27;24495;-58
2021/09/09 06:20:36;;;;;;;7.50;6.80;;;;;;;;;;5120322;27;24432;-58
2021/09/09 06:23:01;;;;;;;6.87;6.27;;;;;;;;;;5124092;27;24516;-58
2021/09/09 06:25:26;;;;;;;6.53;5.80;;;;;;;;;;5111943;27;24780;-57
2021/09/09 06:27:51;;;;;;;7.37;6.20;;;;;;;;;;5123268;27;24450;-57
2021/09/09 06:30:17;;;;;;;8.00;7.20;;;;;;;;;;5116561;28;24414;-58
2021/09/09 06:32:42;;;;;;;7.40;6.80;;;;;;;;;;5108802;28;24466;-58
2021/09/09 06:35:07;;;;;;;6.30;5.80;;;;;;;;;;5113978;28;24575;-58
2021/09/09 06:37:32;;;;;;;6.63;6.03;;;;;;;;;;5113286;28;24429;-57
2021/09/09 06:39:57;;;;;;;6.63;5.80;;;;;;;;;;5110225;28;24768;-58
2021/09/09 06:42:22;;;;;;;7.68;6.13;;;;;;;;;;5121236;28;24951;-57
2021/09/09 06:44:48;;;;;;;6.97;6.27;;;;;;;;;;5115047;28;24530;-59
2021/09/09 06:47:13;;;;;;;6.75;6.15;;;;;;;;;;5110277;28;24425;-59
2021/09/09 06:49:38;;;;;;;6.60;6.00;;;;;;;;;;5108293;28;24406;-60
2021/09/09 06:52:04;;;;;;;6.35;5.82;;;;;;;;;;5106696;28;24583;-59
2021/09/09 06:54:29;;;;;;;6.80;6.30;;;;;;;;;;5110901;28;24404;-59
2021/09/09 06:56:54;;;;;;;5.20;4.80;;;;;;;;;;5110828;28;24424;-58
2021/09/09 06:59:20;;;;;;;7.33;6.70;;;;;;;;;;5111714;27;24508;-57
2021/09/09 07:01:45;;;;;;;7.10;6.40;;;;;;;;;;5110898;28;24768;-56
2021/09/09 07:04:10;;;;;;;6.88;6.28;;;;;;;;;;5110251;28;25223;-57
2021/09/09 07:06:35;;;;;;;6.70;6.00;;;;;;;;;;5111469;28;24454;-58
2021/09/09 07:09:00;;;;;;;6.10;5.57;;;;;;;;;;5124203;27;24416;-57
2021/09/09 07:11:25;;;;;;;6.50;5.90;;;;;;;;;;5117543;27;24467;-57
2021/09/09 07:13:51;;;;;;;6.43;5.70;;;;;;;;;;5109671;28;25077;-58
2021/09/09 07:16:16;;;;;;;6.30;5.70;;;;;;;;;;5110424;28;24406;-58
2021/09/09 07:18:41;;;;;;;7.37;6.00;;;;;;;;;;5110755;27;24997;-58
2021/09/09 07:21:07;;;;;;;7.20;6.50;;;;;;;;;;5110749;28;24380;-58
2021/09/09 07:23:32;;;;;;;6.82;5.90;;;;;;;;;;5110691;28;24989;-57
2021/09/09 07:25:58;;;;;;;7.28;6.57;;;;;;;;;;5110663;28;24417;-58
2021/09/09 07:28:23;;;;;;;5.90;5.20;;;;;;;;;;5120578;27;24827;-58
2021/09/09 07:30:48;;;;;;;6.20;5.70;;;;;;;;;;5131247;27;24448;-58
2021/09/09 07:33:13;;;;;;;6.50;5.90;;;;;;;;;;5130766;27;24547;-58
2021/09/09 07:35:38;;;;;;;5.30;4.90;;;;;;;;;;5131543;27;24397;-58
2021/09/09 07:38:03;;;;;;;6.23;5.63;;;;;;;;;;5131467;27;24488;-58
2021/09/09 07:40:29;;;;;;;7.80;6.27;;;;;;;;;;5130830;27;24497;-57
2021/09/09 07:42:54;;;;;;;6.50;5.77;;;;;;;;;;5127001;27;24422;-57
2021/09/09 07:45:19;;;;;;;6.30;5.80;;;;;;;;;;5110142;28;24999;-58
2021/09/09 07:47:44;;;;;;;6.20;5.60;;;;;;;;;;5110966;28;24821;-57
2021/09/09 07:50:10;;;;;;;6.10;5.50;;;;;;;;;;5110121;28;25314;-57
2021/09/09 07:52:36;;;;;;;5.50;5.10;;;;;;;;;;5110664;28;24759;-58
2021/09/09 07:55:02;;;;;;;7.07;6.38;;;;;;;;;;5125213;27;24509;-58
2021/09/09 07:57:27;;;;;;;6.40;5.80;;;;;;;;;;5131028;27;24542;-58
2021/09/09 07:59:52;;;;;;;5.90;5.40;;;;;;;;;;5121563;27;24512;-58
2021/09/09 08:02:17;;;;;;;6.10;5.60;;;;;;;;;;5110058;28;24401;-58
2021/09/09 08:04:42;;;;;;;6.87;5.87;;;;;;;;;;5117928;27;24994;-58
2021/09/09 08:07:08;;;;;;;6.57;5.85;;;;;;;;;;5117114;27;24420;-58
2021/09/09 08:09:33;;;;;;;6.87;5.53;;;;;;;;;;5110449;28;24485;-58
2021/09/09 08:11:58;;;;;;;6.57;5.70;;;;;;;;;;5109884;28;24939;-58
2021/09/09 08:14:23;;;;;;;5.20;4.80;;;;;;;;;;5096831;27;24455;-57
2021/09/09 08:16:48;;;;;;;6.13;5.63;;;;;;;;;;5109940;28;24881;-58
2021/09/09 08:19:13;;;;;;;7.97;6.20;;;;;;;;;;5110215;28;24394;-57
2021/09/09 08:21:38;;;;;;;5.93;5.43;;;;;;;;;;5109839;28;24390;-57
2021/09/09 08:24:04;;;;;;;5.80;5.30;;;;;;;;;;5109579;28;24822;-57
2021/09/09 08:26:29;;;;;;;5.80;5.40;;;;;;;;;;5114745;27;24556;-57
2021/09/09 08:28:54;;;;;;;6.00;5.50;;;;;;;;;;5109903;28;24397;-58
2021/09/09 08:31:20;;;;;;;6.10;5.60;;;;;;;;;;5109272;28;24798;-58
2021/09/09 08:33:45;;;;;;;6.00;5.50;;;;;;;;;;5109758;28;24994;-58
2021/09/09 08:36:12;;;;;;;7.18;6.32;;;;;;;;;;5110765;27;24954;-59
2021/09/09 08:38:37;;;;;;;6.20;5.70;;;;;;;;;;5108742;28;24410;-59
2021/09/09 08:41:02;;;;;;;5.87;5.47;;;;;;;;;;5108795;28;24437;-58
2021/09/09 08:43:28;;;;;;;6.13;5.33;;;;;;;;;;5109314;28;24405;-58
2021/09/09 08:45:53;;;;;;;7.10;6.40;;;;;;;;;;5109341;28;24500;-58
2021/09/09 08:48:19;;;;;;;7.40;6.70;;;;;;;;;;5110240;27;24537;-59
2021/09/09 08:50:45;;;;;;;7.38;6.20;;;;;;;;;;5109248;28;24838;-59
2021/09/09 08:53:11;;;;;;;5.27;4.77;;;;;;;;;;5109440;28;25048;-59
2021/09/09 08:55:36;;;;;;;6.28;5.68;;;;;;;;;;5109123;28;24535;-58
2021/09/09 08:58:02;;;;;;;6.67;6.07;;;;;;;;;;5109120;27;24508;-58
2021/09/09 09:00:28;;;;;;;6.57;5.90;;;;;;;;;;5108739;28;24444;-59
2021/09/09 09:02:54;;;;;;;5.80;5.40;;;;;;;;;;5109673;28;24481;-58
2021/09/09 09:05:19;;;;;;;5.90;5.40;;;;;;;;;;5108609;28;24999;-58
2021/09/09 09:07:44;;;;;;;6.10;5.60;;;;;;;;;;5113969;27;24501;-59
2021/09/09 09:10:10;;;;;;;7.43;6.10;;;;;;;;;;5122020;27;24444;-59
2021/09/09 09:12:43;;;;;;;6.67;6.00;;;;;;;;;;5108730;28;24496;-59
2021/09/09 09:15:27;;;;;;;8.20;6.00;;;;;;;;;;5105993;28;24393;-59
2021/09/09 09:17:52;;;;;;;6.20;5.60;;;;;;;;;;5110561;27;24763;-59
2021/09/09 09:20:18;;;;;;;6.72;6.13;;;;;;;;;;5128757;27;24771;-59
2021/09/09 09:22:44;;;;;;;6.80;6.10;;;;;;;;;;5119039;27;25005;-59
2021/09/09 09:25:10;;;;;;;6.10;5.60;;;;;;;;;;5108292;28;25087;-59
2021/09/09 09:27:43;;;;;;;6.03;5.37;;;;;;;;;;5108823;28;25210;-58
2021/09/09 09:30:09;;;;;;;6.80;6.20;;;;;;;;;;5124024;27;24550;-59
2021/09/09 09:32:34;;;;;;;6.60;6.10;;;;;;;;;;5126088;27;24400;-58
2021/09/09 09:35:11;;;;;;;7.40;6.30;;;;;;;;;;5108855;28;24413;-59
2021/09/09 09:37:36;;;;;;;6.70;6.10;;;;;;;;;;5108280;28;24481;-59
2021/09/09 09:40:08;;;;;;;7.50;6.40;;;;;;;;;;5118563;27;24848;-59
2021/09/09 09:42:33;;;;;;;6.30;5.70;;;;;;;;;;5129063;27;24473;-59
2021/09/09 09:45:08;;;;;;;6.53;6.03;;;;;;;;;;5126559;27;24409;-58
2021/09/09 09:47:37;;;;;;;6.95;6.45;;;;;;;;;;5108597;27;24418;-59
2021/09/09 09:50:14;;;;;;;7.15;6.55;;;;;;;;;;5107712;28;24418;-60
2021/09/09 09:52:39;;;;;;;6.70;6.00;;;;;;;;;;5108172;28;24436;-59
2021/09/09 09:55:04;;;;;;;7.75;6.80;;;;;;;;;;5108429;28;24426;-59
2021/09/09 09:57:29;;;;;;;7.93;6.50;;;;;;;;;;5107326;28;24938;-59
2021/09/09 09:59:54;;;;;;;7.40;6.63;;;;;;;;;;5107715;28;24979;-58
2021/09/09 10:02:20;;;;;;;6.30;5.80;;;;;;;;;;5107740;28;24402;-58
2021/09/09 10:04:46;;;;;;;5.90;5.50;;;;;;;;;;5120159;27;24436;-58
2021/09/09 10:07:12;;;;;;;6.50;5.90;;;;;;;;;;5111888;27;24410;-59
2021/09/09 10:09:38;;;;;;;6.32;5.72;;;;;;;;;;5108713;27;24418;-59
2021/09/09 10:12:04;;;;;;;6.95;6.35;;;;;;;;;;5107265;28;24482;-58
2021/09/09 10:14:30;;;;;;;7.50;6.80;;;;;;;;;;5106062;28;24447;-58
2021/09/09 10:16:57;;;;;;;6.55;5.95;;;;;;;;;;5107310;28;24455;-58
2021/09/09 10:19:23;;;;;;;6.70;6.10;;;;;;;;;;5113356;27;24410;-59
2021/09/09 10:21:48;;;;;;;6.80;6.10;;;;;;;;;;5128423;27;24393;-60
2021/09/09 10:24:18;;;;;;;6.80;6.20;;;;;;;;;;5122475;27;24424;-60
2021/09/09 10:26:44;;;;;;;6.05;5.55;;;;;;;;;;5108552;27;24402;-59
2021/09/09 10:29:28;;;;;;;6.20;5.70;;;;;;;;;;5107554;27;24421;-60
2021/09/09 10:31:53;;;;;;;6.80;6.20;;;;;;;;;;5097416;28;24409;-60
2021/09/09 10:34:23;;;;;;;7.20;6.50;;;;;;;;;;5119117;28;24885;-59
2021/09/09 10:36:48;;;;;;;6.95;6.20;;;;;;;;;;5107546;28;24413;-60
2021/09/09 10:39:36;;;;;;;7.20;6.50;;;;;;;;;;5110274;28;24768;-61
2021/09/09 10:42:20;;;;;;;6.82;5.95;;;;;;;;;;5111144;28;24432;-59
2021/09/09 10:44:49;;;;;;;6.07;5.50;;;;;;;;;;5126256;28;24505;-60
2021/09/09 10:47:19;;;;;;;6.30;5.70;;;;;;;;;;5107642;28;24398;-59
2021/09/09 10:49:44;;;;;;;6.80;6.20;;;;;;;;;;5106469;28;24458;-59
2021/09/09 10:52:10;;;;;;;7.00;6.40;;;;;;;;;;5122312;28;24425;-60
2021/09/09 10:54:54;;;;;;;6.60;6.10;;;;;;;;;;5128266;28;24475;-58
2021/09/09 10:57:19;;;;;;;6.43;5.82;;;;;;;;;;5104559;28;24425;-58
2021/09/09 10:59:46;;;;;;;6.33;5.83;;;;;;;;;;5107340;28;24935;-59
2021/09/09 11:02:12;;;;;;;6.43;5.88;;;;;;;;;;5108299;28;24432;-59
2021/09/09 11:04:37;;;;;;;7.00;6.30;;;;;;;;;;5107190;28;25281;-59
2021/09/09 11:07:18;;;;;;;7.00;6.30;;;;;;;;;;5107061;28;24413;-59
2021/09/09 11:09:43;;;;;;;6.88;6.30;;;;;;;;;;5108020;28;24764;-59
2021/09/09 11:12:08;;;;;;;6.78;5.90;;;;;;;;;;5127946;28;25016;-60
2021/09/09 11:14:33;;;;;;;6.00;5.50;;;;;;;;;;5126070;28;24623;-58
2021/09/09 11:16:59;;;;;;;6.73;6.13;;;;;;;;;;5128111;28;24385;-58
2021/09/09 11:19:24;;;;;;;7.75;6.40;;;;;;;;;;5115204;28;24402;-58
2021/09/09 11:21:50;;;;;;;7.77;6.50;;;;;;;;;;5127162;28;24822;-60
2021/09/09 11:24:16;;;;;;;7.00;6.40;;;;;;;;;;5110834;28;24974;-62
2021/09/09 11:26:42;;;;;;;6.20;5.60;;;;;;;;;;5106537;28;24512;-59
2021/09/09 11:29:07;;;;;;;7.60;6.90;;;;;;;;;;5106015;28;24417;-60
2021/09/09 11:31:34;;;;;;;7.47;6.17;;;;;;;;;;5110994;28;24401;-59
2021/09/09 11:34:02;;;;;;;6.20;5.70;;;;;;;;;;5113353;28;24768;-59
2021/09/09 11:36:34;;;;;;;7.18;6.15;;;;;;;;;;5106209;28;24414;-59
2021/09/09 11:39:00;;;;;;;6.75;6.15;;;;;;;;;;5106253;28;24496;-59
2021/09/09 11:41:29;;;;;;;6.85;6.15;;;;;;;;;;5114236;27;24421;-59
2021/09/09 11:43:55;;;;;;;5.40;5.00;;;;;;;;;;5110230;27;24528;-59
2021/09/09 11:46:24;;;;;;;6.68;6.07;;;;;;;;;;5106791;28;24448;-59
2021/09/09 11:48:53;;;;;;;6.13;5.63;;;;;;;;;;5104925;28;24971;-59
2021/09/09 11:51:28;;;;;;;5.95;5.55;;;;;;;;;;5104606;28;24448;-58
2021/09/09 11:53:53;;;;;;;7.28;6.53;;;;;;;;;;5089055;28;25038;-59
2021/09/09 11:56:22;;;;;;;6.95;6.38;;;;;;;;;;5100759;28;24464;-59
2021/09/09 11:58:47;;;;;;;6.85;6.22;;;;;;;;;;5104936;28;24501;-59
2021/09/09 12:01:12;;;;;;;6.72;6.13;;;;;;;;;;5107564;28;25051;-59
2021/09/09 12:03:38;;;;;;;6.40;5.80;;;;;;;;;;5109844;27;24417;-59
2021/09/09 12:06:04;;;;;;;6.43;5.90;;;;;;;;;;5106436;28;24522;-59
2021/09/09 12:08:35;;;;;;;5.83;5.43;;;;;;;;;;5106403;28;25023;-58
2021/09/09 12:11:10;;;;;;;6.13;5.63;;;;;;;;;;5089269;28;24386;-59
2021/09/09 12:13:35;;;;;;;6.30;5.70;;;;;;;;;;5108049;27;24417;-59
2021/09/09 12:16:10;;;;;;;6.63;6.13;;;;;;;;;;5105978;28;24869;-59
2021/09/09 12:18:35;;;;;;;6.40;5.90;;;;;;;;;;5106499;28;25005;-59
2021/09/09 12:21:11;;;;;;;7.00;6.30;;;;;;;;;;5107417;28;25029;-59
2021/09/09 12:23:36;;;;;;;7.00;6.30;;;;;;;;;;5109206;27;24448;-59
2021/09/09 12:26:15;;;;;;;6.93;6.30;;;;;;;;;;5106941;28;24881;-59
2021/09/09 12:28:41;;;;;;;7.07;6.53;;;;;;;;;;5090114;28;24817;-59
2021/09/09 12:31:06;;;;;;;7.00;6.40;;;;;;;;;;5106092;28;24940;-59
2021/09/09 12:33:37;;;;;;;6.97;6.10;;;;;;;;;;5107606;27;24410;-59
2021/09/09 12:36:12;;;;;;;7.20;6.60;;;;;;;;;;5106922;28;24429;-59
2021/09/09 12:38:46;;;;;;;7.20;6.60;;;;;;;;;;5104803;28;24414;-59
2021/09/09 12:41:17;;;;;;;7.20;6.50;;;;;;;;;;5105768;28;25005;-59
2021/09/09 12:43:43;;;;;;;6.82;6.32;;;;;;;;;;5107359;27;25083;-59
2021/09/09 12:46:24;;;;;;;6.80;6.20;;;;;;;;;;5105821;28;24424;-59
2021/09/09 12:48:57;;;;;;;6.80;6.30;;;;;;;;;;5104284;28;24422;-58
2021/09/09 12:51:22;;;;;;;6.97;6.28;;;;;;;;;;5084873;28;24420;-59
2021/09/09 12:53:48;;;;;;;6.40;5.90;;;;;;;;;;5089273;28;24422;-58
2021/09/09 12:56:13;;;;;;;6.90;6.40;;;;;;;;;;5097540;27;24461;-59
2021/09/09 12:58:38;;;;;;;6.13;5.60;;;;;;;;;;5101701;28;24413;-59
2021/09/09 13:01:03;;;;;;;6.83;6.30;;;;;;;;;;5106120;28;24498;-59
2021/09/09 13:03:29;;;;;;;7.40;6.70;;;;;;;;;;5105712;28;24393;-58
2021/09/09 13:05:56;;;;;;;7.25;6.65;;;;;;;;;;5106715;27;24547;-59
2021/09/09 13:08:21;;;;;;;7.00;6.40;;;;;;;;;;5101052;28;24420;-59
2021/09/09 13:10:46;;;;;;;6.60;6.00;;;;;;;;;;5104652;27;24397;-59
2021/09/09 13:13:11;;;;;;;6.90;6.00;;;;;;;;;;5106838;28;24428;-60
2021/09/09 13:15:36;;;;;;;7.07;6.40;;;;;;;;;;5115084;27;24453;-59
2021/09/09 13:18:02;;;;;;;7.38;6.68;;;;;;;;;;5109286;28;24394;-59
2021/09/09 13:20:28;;;;;;;7.00;6.40;;;;;;;;;;5113081;27;24970;-59
2021/09/09 13:22:53;;;;;;;6.93;6.32;;;;;;;;;;5106926;28;24421;-60
2021/09/09 13:25:18;;;;;;;6.87;6.30;;;;;;;;;;5106489;27;24491;-60
2021/09/09 13:27:43;;;;;;;6.78;6.18;;;;;;;;;;5114557;27;24966;-60
2021/09/09 13:30:09;;;;;;;7.00;6.40;;;;;;;;;;5116658;27;24406;-60
2021/09/09 13:32:34;;;;;;;7.17;6.50;;;;;;;;;;5111118;27;24470;-60
2021/09/09 13:34:59;;;;;;;6.60;6.00;;;;;;;;;;5112164;27;24467;-59
2021/09/09 13:37:24;;;;;;;6.63;5.80;;;;;;;;;;5108438;28;24402;-59
2021/09/09 13:39:49;;;;;;;7.30;6.70;;;;;;;;;;5108365;27;24962;-60
2021/09/09 13:42:14;;;;;;;8.43;6.70;;;;;;;;;;5119270;27;24477;-60
2021/09/09 13:44:40;;;;;;;8.45;6.55;;;;;;;;;;5100761;27;24433;-61
2021/09/09 13:47:05;;;;;;;6.90;6.30;;;;;;;;;;5086587;28;24902;-60
2021/09/09 13:49:30;;;;;;;6.40;5.90;;;;;;;;;;5106950;28;24497;-60
2021/09/09 13:51:55;;;;;;;7.30;6.60;;;;;;;;;;5106887;27;24819;-60
2021/09/09 13:54:20;;;;;;;7.03;6.32;;;;;;;;;;5114108;27;24417;-59
2021/09/09 13:56:45;;;;;;;6.20;5.60;;;;;;;;;;5107848;28;24764;-59
2021/09/09 13:59:11;;;;;;;7.47;6.45;;;;;;;;;;5105972;28;24810;-60
2021/09/09 14:01:36;;;;;;;7.20;6.50;;;;;;;;;;5108324;28;24469;-60
2021/09/09 14:04:01;;;;;;;7.07;6.45;;;;;;;;;;5108014;28;25116;-60
2021/09/09 14:06:26;;;;;;;6.35;5.75;;;;;;;;;;5108341;27;24833;-60
2021/09/09 14:08:52;;;;;;;6.33;5.83;;;;;;;;;;5124291;27;24409;-60
2021/09/09 14:11:17;;;;;;;6.87;6.23;;;;;;;;;;5116883;27;24497;-60
2021/09/09 14:13:42;;;;;;;6.93;6.23;;;;;;;;;;5125491;27;24401;-60
2021/09/09 14:16:07;;;;;;;6.53;6.03;;;;;;;;;;5105995;27;24478;-60
2021/09/09 14:18:32;;;;;;;7.07;6.37;;;;;;;;;;5108548;27;24548;-60
2021/09/09 14:20:57;;;;;;;6.50;5.93;;;;;;;;;;5112084;27;24402;-59
2021/09/09 14:23:22;;;;;;;6.45;5.95;;;;;;;;;;5117416;27;24825;-61
2021/09/09 14:25:48;;;;;;;5.97;5.57;;;;;;;;;;5107455;28;25032;-60
2021/09/09 14:28:13;;;;;;;6.67;6.07;;;;;;;;;;5106553;28;24410;-59
2021/09/09 14:30:39;;;;;;;6.90;6.27;;;;;;;;;;5104696;28;24757;-60
2021/09/09 14:33:04;;;;;;;6.80;6.30;;;;;;;;;;5088905;28;24588;-60
2021/09/09 14:35:29;;;;;;;6.90;6.20;;;;;;;;;;5106646;28;24410;-60